sensor_id;sensor_type;location;lat;lon;timestamp;pressure;altitude;pressure_sealevel;temperature;humidity
19777;BME280;10047;42.490;26.012;2023-01-31T00:02:00;99810.28;;;-0.14;100.00
19777;BME280;10047;42.490;26.012;2023-01-31T00:04:25;99908.72;;;0.71;100.00
19777;BME280;10047;42.490;26.012;2023-01-31T00:06:51;99851.94;;;-0.13;100.00
19777;BME280;10047;42.490;26.012;2023-01-31T00:09:18;99903.00;;;0.11;100.00
19777;BME280;10047;42.490;26.012;2023-01-31T00:11:44;99905.44;;;0.03;100.00
19777;BME280;10047;42.490;26.012;2023-01-31T00:14:15;99917.13;;;0.06;100.00
19777;BME280;10047;42.490;26.012;2023-01-31T00:16:41;99811.84;;;-0.22;100.00
19777;BME280;10047;42.490;26.012;2023-01-31T00:19:07;99914.25;;;0.46;100.00
19777;BME280;10047;42.490;26.012;2023-01-31T00:21:32;99895.59;;;0.17;100.00
19777;BME280;10047;42.490;26.012;2023-01-31T00:23:58;99910.88;;;0.41;100.00
19777;BME280;10047;42.490;26.012;2023-01-31T00:26:29;99818.53;;;-0.21;100.00
19777;BME280;10047;42.490;26.012;2023-01-31T00:28:56;99821.03;;;-0.21;100.00
19777;BME280;10047;42.490;26.012;2023-01-31T00:31:23;99879.75;;;0.16;100.00
19777;BME280;10047;42.490;26.012;2023-01-31T00:33:50;99878.09;;;0.14;100.00
19777;BME280;10047;42.490;26.012;2023-01-31T00:36:25;99837.69;;;-0.20;100.00
19777;BME280;10047;42.490;26.012;2023-01-31T00:38:53;99788.53;;;-0.24;100.00
19777;BME280;10047;42.490;26.012;2023-01-31T00:41:20;99889.75;;;0.15;100.00
19777;BME280;10047;42.490;26.012;2023-01-31T00:43:46;99816.75;;;-0.31;100.00
19777;BME280;10047;42.490;26.012;2023-01-31T00:46:11;99859.03;;;0.22;100.00
19777;BME280;10047;42.490;26.012;2023-01-31T00:48:37;99888.25;;;0.29;100.00
19777;BME280;10047;42.490;26.012;2023-01-31T00:51:03;99819.56;;;-0.05;100.00
19777;BME280;10047;42.490;26.012;2023-01-31T00:53:29;99885.81;;;0.35;100.00
19777;BME280;10047;42.490;26.012;2023-01-31T00:56:01;99787.03;;;-0.10;100.00
19777;BME280;10047;42.490;26.012;2023-01-31T00:58:27;99817.28;;;0.12;100.00
19777;BME280;10047;42.490;26.012;2023-01-31T01:00:52;99793.72;;;-0.09;100.00
19777;BME280;10047;42.490;26.012;2023-01-31T01:03:18;99795.28;;;-0.18;100.00
19777;BME280;10047;42.490;26.012;2023-01-31T01:05:43;99813.97;;;0.16;100.00
19777;BME280;10047;42.490;26.012;2023-01-31T01:08:09;99872.53;;;0.37;100.00
19777;BME280;10047;42.490;26.012;2023-01-31T01:10:34;99865.53;;;0.11;100.00
19777;BME280;10047;42.490;26.012;2023-01-31T01:13:00;99878.16;;;0.21;100.00
19777;BME280;10047;42.490;26.012;2023-01-31T01:15:25;99889.22;;;0.41;100.00
19777;BME280;10047;42.490;26.012;2023-01-31T01:17:51;99893.25;;;0.27;100.00
19777;BME280;10047;42.490;26.012;2023-01-31T01:20:17;99801.53;;;-0.50;100.00
19777;BME280;10047;42.490;26.012;2023-01-31T01:22:42;99828.63;;;-0.15;100.00
19777;BME280;10047;42.490;26.012;2023-01-31T01:25:08;99768.22;;;-0.54;100.00
19777;BME280;10047;42.490;26.012;2023-01-31T01:27:33;99845.31;;;-0.11;100.00
19777;BME280;10047;42.490;26.012;2023-01-31T01:29:59;99888.25;;;0.27;100.00
19777;BME280;10047;42.490;26.012;2023-01-31T01:32:26;99896.44;;;0.17;100.00
19777;BME280;10047;42.490;26.012;2023-01-31T01:34:52;99719.22;;;-1.09;100.00
19777;BME280;10047;42.490;26.012;2023-01-31T01:37:17;99818.78;;;0.02;100.00
19777;BME280;10047;42.490;26.012;2023-01-31T01:39:47;99838.47;;;-0.24;100.00
19777;BME280;10047;42.490;26.012;2023-01-31T01:42:17;99883.94;;;0.16;100.00
19777;BME280;10047;42.490;26.012;2023-01-31T01:52:27;99793.13;;;-0.55;100.00
19777;BME280;10047;42.490;26.012;2023-01-31T01:55:16;99869.50;;;-0.08;100.00
19777;BME280;10047;42.490;26.012;2023-01-31T01:57:43;99886.22;;;-0.01;100.00
19777;BME280;10047;42.490;26.012;2023-01-31T02:00:20;99870.19;;;-0.18;100.00
19777;BME280;10047;42.490;26.012;2023-01-31T02:02:48;99825.00;;;-0.36;100.00
19777;BME280;10047;42.490;26.012;2023-01-31T02:05:19;99881.53;;;0.26;100.00
19777;BME280;10047;42.490;26.012;2023-01-31T02:07:45;99879.13;;;0.34;100.00
19777;BME280;10047;42.490;26.012;2023-01-31T02:10:33;99892.47;;;0.36;100.00
19777;BME280;10047;42.490;26.012;2023-01-31T02:13:00;99889.78;;;0.18;100.00
19777;BME280;10047;42.490;26.012;2023-01-31T02:15:26;99894.69;;;0.10;100.00
19777;BME280;10047;42.490;26.012;2023-01-31T02:17:52;99738.03;;;-0.72;100.00
19777;BME280;10047;42.490;26.012;2023-01-31T02:20:26;99893.13;;;0.18;100.00
19777;BME280;10047;42.490;26.012;2023-01-31T02:23:08;99886.38;;;0.11;100.00
19777;BME280;10047;42.490;26.012;2023-01-31T02:25:53;99898.72;;;0.00;100.00
19777;BME280;10047;42.490;26.012;2023-01-31T02:33:59;99906.88;;;-0.13;100.00
19777;BME280;10047;42.490;26.012;2023-01-31T02:36:50;99895.41;;;0.02;100.00
19777;BME280;10047;42.490;26.012;2023-01-31T02:39:40;99875.44;;;0.03;100.00
19777;BME280;10047;42.490;26.012;2023-01-31T02:47:42;99897.06;;;0.01;100.00
19777;BME280;10047;42.490;26.012;2023-01-31T02:50:23;99829.31;;;-0.25;100.00
19777;BME280;10047;42.490;26.012;2023-01-31T02:53:08;99873.09;;;0.15;100.00
19777;BME280;10047;42.490;26.012;2023-01-31T02:58:36;99825.03;;;-0.35;100.00
19777;BME280;10047;42.490;26.012;2023-01-31T03:01:03;99882.84;;;-0.06;100.00
19777;BME280;10047;42.490;26.012;2023-01-31T03:03:34;99883.91;;;0.14;100.00
19777;BME280;10047;42.490;26.012;2023-01-31T03:09:12;99738.03;;;-0.72;100.00
19777;BME280;10047;42.490;26.012;2023-01-31T03:11:51;99890.72;;;0.26;100.00
19777;BME280;10047;42.490;26.012;2023-01-31T03:14:37;99897.47;;;0.36;100.00
19777;BME280;10047;42.490;26.012;2023-01-31T03:20:41;99895.22;;;0.55;100.00
19777;BME280;10047;42.490;26.012;2023-01-31T03:23:04;99820.03;;;0.37;100.00
19777;BME280;10047;42.490;26.012;2023-01-31T03:25:34;99902.56;;;0.42;100.00
19777;BME280;10047;42.490;26.012;2023-01-31T03:28:03;99802.31;;;0.16;100.00
19777;BME280;10047;42.490;26.012;2023-01-31T03:30:40;99814.91;;;0.24;100.00
19777;BME280;10047;42.490;26.012;2023-01-31T03:33:22;99879.56;;;0.73;100.00
19777;BME280;10047;42.490;26.012;2023-01-31T03:35:56;99905.31;;;0.66;100.00
19777;BME280;10047;42.490;26.012;2023-01-31T03:38:33;99900.38;;;0.72;100.00
19777;BME280;10047;42.490;26.012;2023-01-31T03:44:04;99904.34;;;0.52;100.00
19777;BME280;10047;42.490;26.012;2023-01-31T03:46:34;99819.47;;;-0.13;100.00
19777;BME280;10047;42.490;26.012;2023-01-31T03:49:03;99813.69;;;-0.09;100.00
19777;BME280;10047;42.490;26.012;2023-01-31T03:51:35;99906.94;;;0.61;100.00
19777;BME280;10047;42.490;26.012;2023-01-31T03:54:08;99815.03;;;-0.35;100.00
19777;BME280;10047;42.490;26.012;2023-01-31T03:59:08;99793.72;;;-0.09;100.00
19777;BME280;10047;42.490;26.012;2023-01-31T04:01:40;99807.72;;;-0.21;100.00
19777;BME280;10047;42.490;26.012;2023-01-31T04:04:10;99828.94;;;0.14;100.00
19777;BME280;10047;42.490;26.012;2023-01-31T04:06:39;99906.88;;;0.56;100.00
19777;BME280;10047;42.490;26.012;2023-01-31T04:09:05;99871.59;;;0.28;100.00
19777;BME280;10047;42.490;26.012;2023-01-31T04:11:36;99817.00;;;-0.11;100.00
19777;BME280;10047;42.490;26.012;2023-01-31T04:14:03;99920.22;;;0.55;100.00
19777;BME280;10047;42.490;26.012;2023-01-31T04:16:28;99827.91;;;-0.02;100.00
19777;BME280;10047;42.490;26.012;2023-01-31T04:18:54;99902.53;;;0.39;100.00
19777;BME280;10047;42.490;26.012;2023-01-31T04:21:21;99834.06;;;0.25;100.00
19777;BME280;10047;42.490;26.012;2023-01-31T04:23:47;99894.38;;;0.55;100.00
19777;BME280;10047;42.490;26.012;2023-01-31T04:26:12;99916.19;;;0.68;100.00
19777;BME280;10047;42.490;26.012;2023-01-31T04:28:37;99897.59;;;0.45;100.00
19777;BME280;10047;42.490;26.012;2023-01-31T04:31:03;99906.03;;;0.53;100.00
19777;BME280;10047;42.490;26.012;2023-01-31T04:33:28;99902.81;;;0.66;100.00
19777;BME280;10047;42.490;26.012;2023-01-31T04:35:55;99903.13;;;2.27;100.00
19777;BME280;10047;42.490;26.012;2023-01-31T04:38:20;99818.06;;;0.96;100.00
19777;BME280;10047;42.490;26.012;2023-01-31T04:40:46;99896.34;;;0.83;100.00
19777;BME280;10047;42.490;26.012;2023-01-31T04:43:11;99832.66;;;0.51;100.00
19777;BME280;10047;42.490;26.012;2023-01-31T04:45:36;99914.72;;;0.88;100.00
19777;BME280;10047;42.490;26.012;2023-01-31T04:48:02;99894.31;;;0.52;100.00
19777;BME280;10047;42.490;26.012;2023-01-31T04:50:28;99835.63;;;0.18;100.00
19777;BME280;10047;42.490;26.012;2023-01-31T04:52:54;99913.06;;;0.88;100.00
19777;BME280;10047;42.490;26.012;2023-01-31T04:55:20;99923.81;;;0.78;100.00
19777;BME280;10047;42.490;26.012;2023-01-31T04:57:46;99936.28;;;0.77;100.00
19777;BME280;10047;42.490;26.012;2023-01-31T05:00:11;99865.88;;;0.41;100.00
19777;BME280;10047;42.490;26.012;2023-01-31T05:02:37;99845.47;;;0.05;100.00
19777;BME280;10047;42.490;26.012;2023-01-31T05:05:04;99881.63;;;0.34;100.00
19777;BME280;10047;42.490;26.012;2023-01-31T05:07:30;99859.91;;;0.27;100.00
19777;BME280;10047;42.490;26.012;2023-01-31T05:09:55;99856.47;;;0.16;100.00
19777;BME280;10047;42.490;26.012;2023-01-31T05:12:21;99840.56;;;0.11;100.00
19777;BME280;10047;42.490;26.012;2023-01-31T05:14:46;99780.31;;;-0.15;100.00
19777;BME280;10047;42.490;26.012;2023-01-31T05:17:12;99893.78;;;0.80;100.00
19777;BME280;10047;42.490;26.012;2023-01-31T05:19:37;99840.81;;;0.32;100.00
19777;BME280;10047;42.490;26.012;2023-01-31T05:22:03;99933.94;;;0.92;100.00
19777;BME280;10047;42.490;26.012;2023-01-31T05:24:30;99819.06;;;0.23;100.00
19777;BME280;10047;42.490;26.012;2023-01-31T05:26:57;99939.06;;;1.06;100.00
19777;BME280;10047;42.490;26.012;2023-01-31T05:29:30;99853.47;;;0.47;100.00
19777;BME280;10047;42.490;26.012;2023-01-31T05:31:57;99839.31;;;0.49;100.00
19777;BME280;10047;42.490;26.012;2023-01-31T05:34:24;99865.47;;;0.82;100.00
19777;BME280;10047;42.490;26.012;2023-01-31T05:36:53;99922.34;;;1.02;100.00
19777;BME280;10047;42.490;26.012;2023-01-31T05:39:19;99871.38;;;0.89;100.00
19777;BME280;10047;42.490;26.012;2023-01-31T05:41:45;99940.19;;;1.39;100.00
19777;BME280;10047;42.490;26.012;2023-01-31T05:44:10;99919.25;;;1.28;100.00
19777;BME280;10047;42.490;26.012;2023-01-31T05:46:37;99927.41;;;2.31;100.00
19777;BME280;10047;42.490;26.012;2023-01-31T05:49:03;99789.97;;;0.30;100.00
19777;BME280;10047;42.490;26.012;2023-01-31T05:51:28;99947.03;;;1.61;100.00
19777;BME280;10047;42.490;26.012;2023-01-31T05:53:54;99951.59;;;2.23;100.00
19777;BME280;10047;42.490;26.012;2023-01-31T05:56:20;99945.00;;;2.41;100.00
19777;BME280;10047;42.490;26.012;2023-01-31T05:58:46;99855.50;;;2.27;100.00
19777;BME280;10047;42.490;26.012;2023-01-31T06:01:26;99917.53;;;2.97;100.00
19777;BME280;10047;42.490;26.012;2023-01-31T06:03:51;99971.16;;;3.20;100.00
19777;BME280;10047;42.490;26.012;2023-01-31T06:06:17;99955.25;;;3.65;100.00
19777;BME280;10047;42.490;26.012;2023-01-31T06:08:43;99956.91;;;3.39;100.00
19777;BME280;10047;42.490;26.012;2023-01-31T06:11:10;99919.25;;;3.31;100.00
19777;BME280;10047;42.490;26.012;2023-01-31T06:13:41;99942.69;;;3.42;100.00
19777;BME280;10047;42.490;26.012;2023-01-31T06:16:08;99853.97;;;3.04;100.00
19777;BME280;10047;42.490;26.012;2023-01-31T06:18:34;99920.09;;;3.42;100.00
19777;BME280;10047;42.490;26.012;2023-01-31T06:20:59;99823.00;;;3.08;100.00
19777;BME280;10047;42.490;26.012;2023-01-31T06:23:25;99712.59;;;2.37;100.00
19777;BME280;10047;42.490;26.012;2023-01-31T06:25:51;99915.03;;;3.61;100.00
19777;BME280;10047;42.490;26.012;2023-01-31T06:28:17;99884.06;;;3.53;100.00
19777;BME280;10047;42.490;26.012;2023-01-31T06:30:43;99905.81;;;3.63;100.00
19777;BME280;10047;42.490;26.012;2023-01-31T06:33:09;99863.16;;;3.34;100.00
19777;BME280;10047;42.490;26.012;2023-01-31T06:35:35;99869.81;;;3.41;100.00
19777;BME280;10047;42.490;26.012;2023-01-31T06:38:01;99915.03;;;3.58;100.00
19777;BME280;10047;42.490;26.012;2023-01-31T06:40:26;99904.16;;;3.68;100.00
19777;BME280;10047;42.490;26.012;2023-01-31T06:42:52;99916.69;;;3.69;100.00
19777;BME280;10047;42.490;26.012;2023-01-31T06:45:17;99904.97;;;3.77;100.00
19777;BME280;10047;42.490;26.012;2023-01-31T06:47:45;99819.63;;;3.14;100.00
19777;BME280;10047;42.490;26.012;2023-01-31T06:50:11;99895.75;;;3.75;100.00
19777;BME280;10047;42.490;26.012;2023-01-31T06:52:38;99846.38;;;3.56;100.00
19777;BME280;10047;42.490;26.012;2023-01-31T06:55:04;99901.59;;;3.83;100.00
19777;BME280;10047;42.490;26.012;2023-01-31T06:57:30;99893.22;;;3.85;100.00
19777;BME280;10047;42.490;26.012;2023-01-31T06:59:55;99906.63;;;3.92;100.00
19777;BME280;10047;42.490;26.012;2023-01-31T07:02:21;99880.63;;;3.91;100.00
19777;BME280;10047;42.490;26.012;2023-01-31T07:04:46;99797.81;;;3.49;100.00
19777;BME280;10047;42.490;26.012;2023-01-31T07:07:11;99883.16;;;3.90;100.00
19777;BME280;10047;42.490;26.012;2023-01-31T07:09:37;99873.91;;;3.95;100.00
19777;BME280;10047;42.490;26.012;2023-01-31T07:12:02;99792.78;;;3.47;100.00
19777;BME280;10047;42.490;26.012;2023-01-31T07:14:28;99878.09;;;3.94;100.00
19777;BME280;10047;42.490;26.012;2023-01-31T07:16:53;99719.22;;;3.02;100.00
19777;BME280;10047;42.490;26.012;2023-01-31T07:19:19;99782.75;;;3.40;100.00
19777;BME280;10047;42.490;26.012;2023-01-31T07:21:44;99810.34;;;3.55;100.00
19777;BME280;10047;42.490;26.012;2023-01-31T07:24:11;99898.22;;;4.02;100.00
19777;BME280;10047;42.490;26.012;2023-01-31T07:26:36;99862.19;;;3.89;100.00
19777;BME280;10047;42.490;26.012;2023-01-31T07:29:02;99743.47;;;3.22;100.00
19777;BME280;10047;42.490;26.012;2023-01-31T07:31:27;99814.47;;;3.73;100.00
19777;BME280;10047;42.490;26.012;2023-01-31T07:33:53;99868.84;;;4.05;100.00
19777;BME280;10047;42.490;26.012;2023-01-31T07:36:18;99878.03;;;4.11;100.00
19777;BME280;10047;42.490;26.012;2023-01-31T07:38:48;99850.44;;;3.93;100.00
19777;BME280;10047;42.490;26.012;2023-01-31T07:41:13;99873.00;;;4.17;100.00
19777;BME280;10047;42.490;26.012;2023-01-31T07:43:39;99866.31;;;4.16;100.00
19777;BME280;10047;42.490;26.012;2023-01-31T07:46:06;99862.06;;;4.21;100.00
19777;BME280;10047;42.490;26.012;2023-01-31T07:48:33;99796.88;;;3.79;100.00
19777;BME280;10047;42.490;26.012;2023-01-31T07:51:00;99865.44;;;4.17;100.00
19777;BME280;10047;42.490;26.012;2023-01-31T07:53:31;99794.28;;;3.95;100.00
19777;BME280;10047;42.490;26.012;2023-01-31T07:56:11;99790.97;;;3.92;100.00
19777;BME280;10047;42.490;26.012;2023-01-31T07:58:39;99887.94;;;4.44;100.00
19777;BME280;10047;42.490;26.012;2023-01-31T08:01:05;99720.72;;;3.57;100.00
19777;BME280;10047;42.490;26.012;2023-01-31T08:03:50;99807.66;;;4.05;100.00
19777;BME280;10047;42.490;26.012;2023-01-31T08:06:16;99790.91;;;4.01;100.00
19777;BME280;10047;42.490;26.012;2023-01-31T08:08:43;99795.03;;;4.12;100.00
19777;BME280;10047;42.490;26.012;2023-01-31T08:11:09;99711.50;;;3.64;100.00
19777;BME280;10047;42.490;26.012;2023-01-31T08:13:35;99895.44;;;4.58;100.00
19777;BME280;10047;42.490;26.012;2023-01-31T08:16:04;99819.66;;;2.79;100.00
19777;BME280;10047;42.490;26.012;2023-01-31T08:18:30;99744.19;;;1.70;100.00
19777;BME280;10047;42.490;26.012;2023-01-31T08:20:57;99902.38;;;2.52;100.00
19777;BME280;10047;42.490;26.012;2023-01-31T08:23:22;99905.66;;;2.28;100.00
19777;BME280;10047;42.490;26.012;2023-01-31T08:25:48;99914.03;;;2.33;100.00
19777;BME280;10047;42.490;26.012;2023-01-31T08:28:14;99891.50;;;2.42;100.00
19777;BME280;10047;42.490;26.012;2023-01-31T08:30:43;99857.97;;;2.22;100.00
19777;BME280;10047;42.490;26.012;2023-01-31T08:33:09;99763.44;;;1.79;100.00
19777;BME280;10047;42.490;26.012;2023-01-31T08:35:36;99928.34;;;2.66;100.00
19777;BME280;10047;42.490;26.012;2023-01-31T08:38:03;99917.41;;;2.38;100.00
19777;BME280;10047;42.490;26.012;2023-01-31T08:40:29;99783.41;;;1.56;100.00
19777;BME280;10047;42.490;26.012;2023-01-31T08:42:55;99865.47;;;2.06;100.00
19777;BME280;10047;42.490;26.012;2023-01-31T08:45:21;99957.44;;;2.19;100.00
19777;BME280;10047;42.490;26.012;2023-01-31T08:47:47;99792.47;;;1.38;100.00
19777;BME280;10047;42.490;26.012;2023-01-31T08:50:12;99857.06;;;1.98;100.00
19777;BME280;10047;42.490;26.012;2023-01-31T08:52:38;99882.94;;;1.92;100.00
19777;BME280;10047;42.490;26.012;2023-01-31T08:55:04;99979.28;;;2.42;100.00
19777;BME280;10047;42.490;26.012;2023-01-31T08:57:30;99905.63;;;2.21;100.00
19777;BME280;10047;42.490;26.012;2023-01-31T08:59:56;99972.66;;;2.53;100.00
19777;BME280;10047;42.490;26.012;2023-01-31T09:02:21;99978.44;;;2.48;100.00
19777;BME280;10047;42.490;26.012;2023-01-31T09:04:47;99968.44;;;2.49;100.00
19777;BME280;10047;42.490;26.012;2023-01-31T09:07:13;99976.03;;;2.63;100.00
19777;BME280;10047;42.490;26.012;2023-01-31T09:09:39;99914.84;;;2.28;100.00
19777;BME280;10047;42.490;26.012;2023-01-31T09:12:04;99996.13;;;2.74;100.00
19777;BME280;10047;42.490;26.012;2023-01-31T09:14:30;99919.88;;;2.29;100.00
19777;BME280;10047;42.490;26.012;2023-01-31T09:16:55;99989.47;;;2.77;100.00
19777;BME280;10047;42.490;26.012;2023-01-31T09:19:21;99997.84;;;2.88;100.00
19777;BME280;10047;42.490;26.012;2023-01-31T09:21:48;99898.91;;;2.12;100.00
19777;BME280;10047;42.490;26.012;2023-01-31T09:24:13;99904.00;;;2.38;100.00
19777;BME280;10047;42.490;26.012;2023-01-31T09:26:38;99909.06;;;2.45;100.00
19777;BME280;10047;42.490;26.012;2023-01-31T09:29:04;99910.81;;;2.74;100.00
19777;BME280;10047;42.490;26.012;2023-01-31T09:31:29;99896.56;;;2.63;100.00
19777;BME280;10047;42.490;26.012;2023-01-31T09:33:55;99992.88;;;3.15;100.00
19777;BME280;10047;42.490;26.012;2023-01-31T09:36:21;99949.34;;;2.98;100.00
19777;BME280;10047;42.490;26.012;2023-01-31T09:38:53;99987.06;;;3.21;100.00
19777;BME280;10047;42.490;26.012;2023-01-31T09:41:27;99928.44;;;2.95;100.00
19777;BME280;10047;42.490;26.012;2023-01-31T09:43:59;99973.66;;;3.14;100.00
19777;BME280;10047;42.490;26.012;2023-01-31T09:46:26;99983.69;;;3.25;100.00
19777;BME280;10047;42.490;26.012;2023-01-31T09:48:54;99886.53;;;2.62;100.00
19777;BME280;10047;42.490;26.012;2023-01-31T09:51:22;99874.03;;;2.88;100.00
19777;BME280;10047;42.490;26.012;2023-01-31T09:53:48;99966.97;;;3.36;100.00
19777;BME280;10047;42.490;26.012;2023-01-31T09:58:55;99815.47;;;2.71;100.00
19777;BME280;10047;42.490;26.012;2023-01-31T10:01:36;99958.59;;;3.66;100.00
19777;BME280;10047;42.490;26.012;2023-01-31T10:11:59;99928.31;;;4.20;100.00
19777;BME280;10047;42.490;26.012;2023-01-31T10:14:34;99944.06;;;4.64;100.00
19777;BME280;10047;42.490;26.012;2023-01-31T10:17:21;99901.38;;;4.49;100.00
19777;BME280;10047;42.490;26.012;2023-01-31T10:20:19;99864.56;;;4.31;100.00
19777;BME280;10047;42.490;26.012;2023-01-31T10:22:50;99929.78;;;4.68;100.00
19777;BME280;10047;42.490;26.012;2023-01-31T10:25:24;99924.69;;;4.80;100.00
19777;BME280;10047;42.490;26.012;2023-01-31T10:27:54;99851.97;;;4.24;100.00
19777;BME280;10047;42.490;26.012;2023-01-31T10:30:27;99928.88;;;4.81;100.00
19777;BME280;10047;42.490;26.012;2023-01-31T10:33:01;99830.13;;;4.32;100.00
19777;BME280;10047;42.490;26.012;2023-01-31T10:35:34;99922.06;;;4.93;100.00
19777;BME280;10047;42.490;26.012;2023-01-31T10:38:06;99827.59;;;4.38;100.00
19777;BME280;10047;42.490;26.012;2023-01-31T10:40:38;99896.03;;;4.99;100.00
19777;BME280;10047;42.490;26.012;2023-01-31T10:43:37;99892.63;;;5.04;100.00
19777;BME280;10047;42.490;26.012;2023-01-31T10:46:10;99819.50;;;5.13;100.00
19777;BME280;10047;42.490;26.012;2023-01-31T10:48:38;99845.44;;;5.24;100.00
19777;BME280;10047;42.490;26.012;2023-01-31T10:54:12;99873.72;;;5.54;100.00
19777;BME280;10047;42.490;26.012;2023-01-31T10:56:42;99797.69;;;5.91;100.00
19777;BME280;10047;42.490;26.012;2023-01-31T11:01:45;99849.41;;;6.24;100.00
19777;BME280;10047;42.490;26.012;2023-01-31T11:04:33;99862.22;;;6.09;100.00
19777;BME280;10047;42.490;26.012;2023-01-31T11:07:00;99867.63;;;6.46;100.00
19777;BME280;10047;42.490;26.012;2023-01-31T11:09:33;99780.09;;;5.87;100.00
19777;BME280;10047;42.490;26.012;2023-01-31T11:12:03;99839.47;;;6.13;100.00
19777;BME280;10047;42.490;26.012;2023-01-31T11:14:29;99825.41;;;5.96;100.00
19777;BME280;10047;42.490;26.012;2023-01-31T11:17:04;99861.59;;;5.90;100.00
19777;BME280;10047;42.490;26.012;2023-01-31T11:19:44;99863.09;;;6.06;100.00
19777;BME280;10047;42.490;26.012;2023-01-31T11:22:31;99710.41;;;5.08;100.00
19777;BME280;10047;42.490;26.012;2023-01-31T11:24:58;99770.50;;;5.42;100.00
19777;BME280;10047;42.490;26.012;2023-01-31T11:27:28;99782.06;;;5.62;100.00
19777;BME280;10047;42.490;26.012;2023-01-31T11:29:57;99852.69;;;6.31;100.00
19777;BME280;10047;42.490;26.012;2023-01-31T11:32:26;99820.41;;;6.54;100.00
19777;BME280;10047;42.490;26.012;2023-01-31T11:35:01;99859.44;;;6.91;100.00
19777;BME280;10047;42.490;26.012;2023-01-31T11:37:31;99858.16;;;7.18;100.00
19777;BME280;10047;42.490;26.012;2023-01-31T11:40:01;99831.31;;;7.58;100.00
19777;BME280;10047;42.490;26.012;2023-01-31T11:42:27;99757.75;;;6.77;100.00
19777;BME280;10047;42.490;26.012;2023-01-31T11:47:27;99814.47;;;7.57;100.00
19777;BME280;10047;42.490;26.012;2023-01-31T11:49:55;99680.09;;;5.81;100.00
19777;BME280;10047;42.490;26.012;2023-01-31T11:52:26;99749.50;;;6.66;100.00
19777;BME280;10047;42.490;26.012;2023-01-31T11:55:05;99752.75;;;6.74;100.00
19777;BME280;10047;42.490;26.012;2023-01-31T11:57:34;99780.13;;;6.98;100.00
19777;BME280;10047;42.490;26.012;2023-01-31T12:00:04;99739.69;;;6.48;100.00
19777;BME280;10047;42.490;26.012;2023-01-31T12:04:59;99747.09;;;6.58;100.00
19777;BME280;10047;42.490;26.012;2023-01-31T12:07:30;99745.38;;;7.09;100.00
19777;BME280;10047;42.490;26.012;2023-01-31T12:09:56;99822.44;;;7.36;100.00
19777;BME280;10047;42.490;26.012;2023-01-31T12:12:28;99826.97;;;7.17;100.00
19777;BME280;10047;42.490;26.012;2023-01-31T12:14:59;99750.69;;;6.97;100.00
19777;BME280;10047;42.490;26.012;2023-01-31T12:17:27;99786.00;;;7.47;100.00
19777;BME280;10047;42.490;26.012;2023-01-31T12:20:06;99809.75;;;7.83;100.00
19777;BME280;10047;42.490;26.012;2023-01-31T12:22:40;99749.59;;;7.10;100.00
19777;BME280;10047;42.490;26.012;2023-01-31T12:31:09;99818.06;;;6.96;100.00
19777;BME280;10047;42.490;26.012;2023-01-31T12:34:17;99837.16;;;6.61;100.00
19777;BME280;10047;42.490;26.012;2023-01-31T12:56:18;99747.13;;;5.31;100.00
19777;BME280;10047;42.490;26.012;2023-01-31T13:04:38;99813.19;;;5.58;100.00
19777;BME280;10047;42.490;26.012;2023-01-31T13:07:19;99842.34;;;5.83;100.00
19777;BME280;10047;42.490;26.012;2023-01-31T13:09:50;99784.72;;;5.50;100.00
19777;BME280;10047;42.490;26.012;2023-01-31T13:12:19;99833.09;;;5.84;100.00
19777;BME280;10047;42.490;26.012;2023-01-31T13:14:54;99761.34;;;5.36;100.00
19777;BME280;10047;42.490;26.012;2023-01-31T13:17:26;99767.16;;;5.40;100.00
19777;BME280;10047;42.490;26.012;2023-01-31T13:20:20;99845.69;;;5.82;100.00
19777;BME280;10047;42.490;26.012;2023-01-31T13:22:52;99853.84;;;6.07;100.00
19777;BME280;10047;42.490;26.012;2023-01-31T13:28:17;99854.13;;;6.50;100.00
19777;BME280;10047;42.490;26.012;2023-01-31T13:30:49;99833.25;;;6.93;100.00
19777;BME280;10047;42.490;26.012;2023-01-31T13:35:55;99837.34;;;6.47;100.00
19777;BME280;10047;42.490;26.012;2023-01-31T13:38:23;99841.66;;;6.39;100.00
19777;BME280;10047;42.490;26.012;2023-01-31T13:40:53;99693.53;;;5.13;100.00
19777;BME280;10047;42.490;26.012;2023-01-31T13:43:20;99740.63;;;5.81;100.00
19777;BME280;10047;42.490;26.012;2023-01-31T13:46:00;99840.50;;;6.60;100.00
19777;BME280;10047;42.490;26.012;2023-01-31T13:48:37;99847.53;;;6.38;100.00
19777;BME280;10047;42.490;26.012;2023-01-31T13:51:18;99852.78;;;6.25;100.00
19777;BME280;10047;42.490;26.012;2023-01-31T13:53:58;99703.47;;;5.28;100.00
19777;BME280;10047;42.490;26.012;2023-01-31T13:56:30;99780.22;;;5.73;100.00
19777;BME280;10047;42.490;26.012;2023-01-31T13:58:57;99864.69;;;6.12;100.00
19777;BME280;10047;42.490;26.012;2023-01-31T14:01:25;99827.91;;;5.94;100.00
19777;BME280;10047;42.490;26.012;2023-01-31T14:11:49;99893.22;;;5.35;100.00
19777;BME280;10047;42.490;26.012;2023-01-31T14:20:13;99915.94;;;5.32;100.00
19777;BME280;10047;42.490;26.012;2023-01-31T14:25:51;99902.38;;;5.45;100.00
19777;BME280;10047;42.490;26.012;2023-01-31T14:28:16;99816.31;;;4.92;100.00
19777;BME280;10047;42.490;26.012;2023-01-31T14:30:43;99908.22;;;5.50;100.00
19777;BME280;10047;42.490;26.012;2023-01-31T14:35:58;99928.31;;;5.55;100.00
19777;BME280;10047;42.490;26.012;2023-01-31T14:41:09;99873.78;;;4.25;100.00
19777;BME280;10047;42.490;26.012;2023-01-31T14:57:21;99990.44;;;3.62;100.00
19777;BME280;10047;42.490;26.012;2023-01-31T14:59:58;99921.75;;;3.30;100.00
19777;BME280;10047;42.490;26.012;2023-01-31T15:07:23;100034.00;;;3.87;100.00
19777;BME280;10047;42.490;26.012;2023-01-31T15:09:49;99943.53;;;3.29;100.00
19777;BME280;10047;42.490;26.012;2023-01-31T15:15:37;100018.94;;;3.64;100.00